createdAt,value
2023-03-13T00:01:53.119Z,95228.06
2023-03-13T00:04:19.878Z,95225.75
2023-03-13T00:06:46.540Z,95216.56
2023-03-13T00:09:15.416Z,95236.09
2023-03-13T00:11:42.691Z,95224.22
2023-03-13T00:14:09.960Z,95231.09
2023-03-13T00:16:37.687Z,95233.81
2023-03-13T00:19:06.127Z,95239.94
2023-03-13T00:21:33.554Z,95243.78
2023-03-13T00:24:00.876Z,95242.25
2023-03-13T00:26:28.965Z,95231.91
2023-03-13T00:28:56.032Z,95243.41
2023-03-13T00:31:31.392Z,95249.53
2023-03-13T00:34:02.930Z,95228.91
2023-03-13T00:36:35.226Z,95246.88
2023-03-13T00:39:01.728Z,95250.69
2023-03-13T00:41:30.684Z,95251.47
2023-03-13T00:43:58.043Z,95240.38
2023-03-13T00:46:27.092Z,95244.19
2023-03-13T00:48:53.830Z,95244.97
2023-03-13T00:51:21.711Z,95241.53
2023-03-13T00:53:48.995Z,95235.81
2023-03-13T00:56:18.400Z,95238.47
2023-03-13T00:58:46.738Z,95230.44
2023-03-13T01:01:18.029Z,95241.53
2023-03-13T01:03:47.371Z,95252.22
2023-03-13T01:06:16.462Z,95224.31
2023-03-13T01:08:43.400Z,95226.97
2023-03-13T01:11:13.382Z,95234.25
2023-03-13T01:13:40.456Z,95235.78
2023-03-13T01:16:13.130Z,95231.56
2023-03-13T01:18:42.929Z,95232.31
2023-03-13T01:21:10.395Z,95236.16
2023-03-13T01:23:37.503Z,95231.19
2023-03-13T01:26:06.953Z,95231.94
2023-03-13T01:28:34.646Z,95248.03
2023-03-13T01:31:10.036Z,95253.78
2023-03-13T01:33:36.718Z,95248.41
2023-03-13T01:36:04.393Z,95253.00
2023-03-13T01:38:31.086Z,95250.31
2023-03-13T01:40:57.799Z,95242.28
2023-03-13T01:43:27.825Z,95248.41
2023-03-13T01:46:18.995Z,95263.34
2023-03-13T01:48:54.404Z,95257.22
2023-03-13T01:51:27.075Z,95264.13
2023-03-13T01:54:00.802Z,95262.97
2023-03-13T01:56:34.301Z,95250.34
2023-03-13T01:59:02.029Z,95256.81
2023-03-13T02:01:29.806Z,95252.63
2023-03-13T02:03:58.136Z,95251.84
2023-03-13T02:06:28.273Z,95250.31
2023-03-13T02:08:59.880Z,95254.91
2023-03-13T02:11:35.620Z,95267.16
2023-03-13T02:14:04.662Z,95268.69
2023-03-13T02:16:34.754Z,95269.09
2023-03-13T02:19:08.123Z,95277.50
2023-03-13T02:21:47.450Z,95285.13
2023-03-13T02:24:20.283Z,95282.44
2023-03-13T02:26:47.045Z,95285.72
2023-03-13T02:29:18.422Z,95290.66
2023-03-13T02:31:47.357Z,95297.78
2023-03-13T02:34:22.171Z,95297.78
2023-03-13T02:36:49.627Z,95290.88
2023-03-13T02:39:18.444Z,95305.19
2023-03-13T02:41:46.696Z,95305.56
2023-03-13T02:44:13.384Z,95314.34
2023-03-13T02:46:52.454Z,95330.31
2023-03-13T02:49:27.440Z,95322.53
2023-03-13T02:51:56.845Z,95318.63
2023-03-13T02:54:28.199Z,95327.34
2023-03-13T02:56:57.919Z,95324.06
2023-03-13T02:59:25.626Z,95324.81
2023-03-13T03:01:52.706Z,95325.69
2023-03-13T03:04:21.616Z,95323.44
2023-03-13T03:06:48.907Z,95321.16
2023-03-13T03:09:16.483Z,95331.19
2023-03-13T03:11:43.138Z,95334.63
2023-03-13T03:14:11.423Z,95336.94
2023-03-13T03:16:38.580Z,95341.19
2023-03-13T03:19:06.582Z,95350.75
2023-03-13T03:21:34.144Z,95347.69
2023-03-13T03:24:01.350Z,95368.63
2023-03-13T03:26:28.002Z,95363.03
2023-03-13T03:28:54.696Z,95357.28
2023-03-13T03:31:21.431Z,95355.44
2023-03-13T03:33:48.508Z,95347.47
2023-03-13T03:36:18.292Z,95349.38
2023-03-13T03:38:45.401Z,95370.00
2023-03-13T03:41:14.217Z,95388.59
2023-03-13T03:43:41.691Z,95388.16
2023-03-13T03:46:09.013Z,95394.63
2023-03-13T03:48:36.544Z,95391.75
2023-03-13T03:51:03.338Z,95388.16
2023-03-13T03:53:29.949Z,95400.06
2023-03-13T03:55:56.548Z,95395.88
2023-03-13T03:58:23.177Z,95395.03
2023-03-13T04:00:49.828Z,95408.03
2023-03-13T04:03:16.903Z,95386.34
2023-03-13T04:05:44.358Z,95407.38
2023-03-13T04:08:10.933Z,95411.00
2023-03-13T04:10:37.625Z,95424.50
2023-03-13T04:13:04.287Z,95417.88
2023-03-13T04:15:30.861Z,95425.91
2023-03-13T04:17:57.509Z,95425.03
2023-03-13T04:20:24.206Z,95430.78
2023-03-13T04:22:50.940Z,95419.38
2023-03-13T04:25:17.919Z,95436.97
2023-03-13T04:27:44.553Z,95426.94
2023-03-13T04:30:11.704Z,95433.09
2023-03-13T04:32:38.662Z,95422.63
2023-03-13T04:35:05.627Z,95455.47
2023-03-13T04:37:32.259Z,95459.75
2023-03-13T04:39:58.990Z,95462.72
2023-03-13T04:42:26.021Z,95468.59
2023-03-13T04:44:52.605Z,95476.25
2023-03-13T04:47:19.319Z,95478.16
2023-03-13T04:49:45.908Z,95476.66
2023-03-13T04:52:13.109Z,95462.06
2023-03-13T04:54:39.727Z,95483.50
2023-03-13T04:57:06.355Z,95475.97
2023-03-13T04:59:33.255Z,95485.81
2023-03-13T05:01:59.918Z,95475.19
2023-03-13T05:04:26.526Z,95470.34
2023-03-13T05:06:53.239Z,95471.44
2023-03-13T05:09:19.862Z,95486.19
2023-03-13T05:11:46.590Z,95482.16
2023-03-13T05:14:13.254Z,95492.22
2023-03-13T05:16:39.915Z,95490.47
2023-03-13T05:19:06.515Z,95493.53
2023-03-13T05:21:33.160Z,95498.50
2023-03-13T05:23:59.833Z,95497.81
2023-03-13T05:26:26.555Z,95507.75
2023-03-13T05:28:53.188Z,95504.00
2023-03-13T05:31:19.833Z,95509.03
2023-03-13T05:33:46.445Z,95501.56
2023-03-13T05:36:13.085Z,95500.31
2023-03-13T05:38:39.899Z,95516.09
2023-03-13T05:41:06.519Z,95517.78
2023-03-13T05:43:33.157Z,95522.31
2023-03-13T05:45:59.936Z,95517.72
2023-03-13T05:48:26.558Z,95521.97
2023-03-13T05:50:53.162Z,95514.13
2023-03-13T05:53:19.749Z,95525.78
2023-03-13T05:55:46.392Z,95529.22
2023-03-13T05:58:13.089Z,95537.78
2023-03-13T06:00:39.836Z,95531.00
2023-03-13T06:03:06.465Z,95535.22
2023-03-13T06:05:33.038Z,95538.66
2023-03-13T06:07:59.608Z,95548.78
2023-03-13T06:10:26.293Z,95535.94
2023-03-13T06:12:54.392Z,95536.19
2023-03-13T06:15:21.193Z,95548.63
2023-03-13T06:17:47.846Z,95552.34
2023-03-13T06:20:15.163Z,95539.69
2023-03-13T06:22:42.274Z,95537.75
2023-03-13T06:25:09.490Z,95545.13
2023-03-13T06:27:36.197Z,95530.53
2023-03-13T06:30:03.326Z,95530.91
2023-03-13T06:32:30.231Z,95524.34
2023-03-13T06:34:57.028Z,95519.06
2023-03-13T06:37:23.972Z,95528.25
2023-03-13T06:39:50.617Z,95542.03
2023-03-13T06:42:17.234Z,95547.63
2023-03-13T06:44:44.755Z,95541.13
2023-03-13T06:47:13.039Z,95537.19
2023-03-13T06:49:41.005Z,95544.53
2023-03-13T06:52:07.605Z,95530.72
2023-03-13T06:54:34.263Z,95537.06
2023-03-13T06:57:00.924Z,95531.84
2023-03-13T06:59:27.655Z,95526.09
2023-03-13T07:01:54.299Z,95518.84
2023-03-13T07:04:20.980Z,95543.38
2023-03-13T07:06:47.705Z,95532.69
2023-03-13T07:09:14.393Z,95537.47
2023-03-13T07:11:40.966Z,95539.84
2023-03-13T07:14:16.417Z,95536.47
2023-03-13T07:16:45.066Z,95532.47
2023-03-13T07:19:11.880Z,95528.94
2023-03-13T07:21:38.487Z,95523.72
2023-03-13T07:24:05.473Z,95530.94
2023-03-13T07:26:32.406Z,95520.66
2023-03-13T07:28:59.560Z,95520.06
2023-03-13T07:31:26.544Z,95534.91
2023-03-13T07:33:56.557Z,95525.94
2023-03-13T07:36:23.880Z,95519.50
2023-03-13T07:38:52.224Z,95526.09
2023-03-13T07:41:20.329Z,95520.19
2023-03-13T07:43:47.163Z,95522.97
2023-03-13T07:46:18.847Z,95529.22
2023-03-13T07:48:46.551Z,95520.69
2023-03-13T07:51:20.535Z,95523.50
2023-03-13T07:53:51.235Z,95521.25
2023-03-13T07:56:21.224Z,95518.22
2023-03-13T07:58:48.691Z,95517.66
2023-03-13T08:01:26.054Z,95511.69
2023-03-13T08:03:55.590Z,95511.13
2023-03-13T08:06:24.592Z,95520.84
2023-03-13T08:08:52.117Z,95513.69
2023-03-13T08:11:21.547Z,95510.47
2023-03-13T08:13:50.162Z,95518.00
2023-03-13T08:16:19.842Z,95513.16
2023-03-13T08:18:49.208Z,95512.69
2023-03-13T08:21:19.210Z,95514.75
2023-03-13T08:23:45.795Z,95521.53
2023-03-13T08:26:15.420Z,95522.31
2023-03-13T08:28:43.161Z,95518.41
2023-03-13T08:31:14.927Z,95516.88
2023-03-13T08:33:43.939Z,95522.69
2023-03-13T08:36:28.792Z,95529.69
2023-03-13T08:38:59.075Z,95510.97
2023-03-13T08:41:28.960Z,95503.00
2023-03-13T08:43:57.320Z,95515.19
2023-03-13T08:46:24.646Z,95520.88
2023-03-13T08:48:53.520Z,95521.59
2023-03-13T08:51:23.402Z,95504.97
2023-03-13T08:53:51.448Z,95503.84
2023-03-13T08:56:20.665Z,95511.19
2023-03-13T08:58:51.284Z,95511.28
2023-03-13T09:01:18.196Z,95517.28
2023-03-13T09:03:44.920Z,95524.56
2023-03-13T09:06:12.052Z,95519.66
2023-03-13T09:08:39.643Z,95513.47
2023-03-13T09:11:17.640Z,95512.53
2023-03-13T09:13:46.876Z,95512.63
2023-03-13T09:16:22.231Z,95507.59
2023-03-13T09:18:50.249Z,95506.25
2023-03-13T09:21:19.306Z,95501.28
2023-03-13T09:23:45.942Z,95501.00
2023-03-13T09:26:12.872Z,95509.16
2023-03-13T09:28:42.058Z,95508.53
2023-03-13T09:31:14.789Z,95502.75
2023-03-13T09:33:42.384Z,95514.91
2023-03-13T09:36:09.676Z,95505.53
2023-03-13T09:38:36.643Z,95495.16
2023-03-13T09:41:15.879Z,95493.59
2023-03-13T09:43:48.321Z,95484.91
2023-03-13T09:46:23.319Z,95476.94
2023-03-13T09:48:56.098Z,95484.09
2023-03-13T09:51:42.762Z,95489.25
2023-03-13T09:54:39.722Z,95480.88
2023-03-13T09:57:28.779Z,95478.34
2023-03-13T10:00:02.613Z,95479.69
2023-03-13T10:02:33.788Z,95474.59
2023-03-13T10:05:19.169Z,95466.91
2023-03-13T10:07:45.867Z,95473.75
2023-03-13T10:10:21.468Z,95465.31
2023-03-13T10:12:52.774Z,95466.19
2023-03-13T10:15:33.387Z,95458.09
2023-03-13T10:18:05.382Z,95443.75
2023-03-13T10:20:36.203Z,95447.22
2023-03-13T10:23:14.873Z,95448.78
2023-03-13T10:25:41.526Z,95443.09
2023-03-13T10:28:15.772Z,95440.97
2023-03-13T10:31:14.096Z,95439.09
2023-03-13T10:33:43.059Z,95425.53
2023-03-13T10:36:12.961Z,95420.84
2023-03-13T10:38:51.545Z,95417.38
2023-03-13T10:41:38.464Z,95408.13
2023-03-13T10:44:15.382Z,95413.75
2023-03-13T10:46:44.077Z,95404.88
2023-03-13T10:49:19.629Z,95412.56
2023-03-13T10:51:54.967Z,95397.88
2023-03-13T10:54:25.556Z,95398.09
2023-03-13T10:57:07.464Z,95399.69
2023-03-13T10:59:43.333Z,95384.31
2023-03-13T11:02:35.553Z,95384.38
2023-03-13T11:05:32.898Z,95383.38
2023-03-13T11:08:12.794Z,95372.84
2023-03-13T11:10:52.944Z,95377.69
2023-03-13T11:13:36.997Z,95376.72
2023-03-13T11:16:29.317Z,95371.47
2023-03-13T11:19:14.300Z,95362.03
2023-03-13T11:22:05.739Z,95362.84
2023-03-13T11:24:55.670Z,95362.59
2023-03-13T11:27:31.276Z,95341.59
2023-03-13T11:30:00.979Z,95350.00
2023-03-13T11:32:37.497Z,95346.13
2023-03-13T11:35:15.575Z,95335.44
2023-03-13T11:37:44.560Z,95335.69
2023-03-13T11:40:17.255Z,95328.69
2023-03-13T11:42:46.776Z,95323.22
2023-03-13T11:45:50.986Z,95317.84
2023-03-13T11:48:51.232Z,95315.66
2023-03-13T11:51:32.626Z,95308.34
2023-03-13T11:54:20.398Z,95305.53
2023-03-13T11:56:57.611Z,95287.31
2023-03-13T11:59:30.192Z,95291.28
2023-03-13T12:02:18.309Z,95288.22
2023-03-13T12:04:49.247Z,95288.44
2023-03-13T12:07:37.176Z,95284.25
2023-03-13T12:10:27.913Z,95265.72
2023-03-13T12:13:00.646Z,95274.59
2023-03-13T12:15:29.611Z,95270.63
2023-03-13T12:18:17.804Z,95268.16
2023-03-13T12:20:53.585Z,95265.47
2023-03-13T12:23:36.942Z,95260.06
2023-03-13T12:26:10.382Z,95272.19
2023-03-13T12:29:06.562Z,95271.56
2023-03-13T12:31:57.390Z,95265.91
2023-03-13T12:34:50.633Z,95258.06
2023-03-13T12:37:25.347Z,95257.63
2023-03-13T12:40:28.502Z,95256.22
2023-03-13T12:43:06.222Z,95255.31
2023-03-13T12:45:37.177Z,95247.72
2023-03-13T12:48:13.008Z,95254.41
2023-03-13T12:50:58.116Z,95262.59
2023-03-13T12:53:42.499Z,95261.66
2023-03-13T12:56:18.213Z,95264.28
2023-03-13T12:58:56.693Z,95257.84
2023-03-13T13:01:47.744Z,95255.72
2023-03-13T13:04:18.241Z,95258.09
2023-03-13T13:07:05.907Z,95256.41
2023-03-13T13:09:36.364Z,95258.00
2023-03-13T13:12:19.921Z,95245.06
2023-03-13T13:14:49.643Z,95250.56
2023-03-13T13:17:19.175Z,95252.06
2023-03-13T13:19:47.975Z,95244.00
2023-03-13T13:22:40.035Z,95242.66
2023-03-13T13:25:12.997Z,95238.56
2023-03-13T13:27:39.559Z,95230.63
2023-03-13T13:30:18.592Z,95233.44
2023-03-13T13:32:48.297Z,95225.16
2023-03-13T13:35:24.287Z,95229.22
2023-03-13T13:37:51.149Z,95227.16
2023-03-13T13:40:31.436Z,95213.59
2023-03-13T13:43:04.816Z,95221.47
2023-03-13T13:45:37.995Z,95230.59
2023-03-13T13:48:24.368Z,95230.06
2023-03-13T13:51:14.008Z,95227.34
2023-03-13T13:53:54.121Z,95225.91
2023-03-13T13:56:37.894Z,95221.66
2023-03-13T13:59:25.613Z,95219.91
2023-03-13T14:02:15.155Z,95218.75
2023-03-13T14:05:01.071Z,95219.53
2023-03-13T14:07:41.681Z,95205.41
2023-03-13T14:10:27.308Z,95217.44
2023-03-13T14:12:56.642Z,95201.34
2023-03-13T14:15:32.124Z,95203.53
2023-03-13T14:18:01.371Z,95204.59
2023-03-13T14:20:39.076Z,95196.28
2023-03-13T14:23:06.291Z,95209.72
2023-03-13T14:25:48.388Z,95210.09
2023-03-13T14:28:23.889Z,95206.13
2023-03-13T14:30:53.159Z,95186.94
2023-03-13T14:33:20.388Z,95211.59
2023-03-13T14:35:47.983Z,95202.06
2023-03-13T14:38:19.220Z,95207.81
2023-03-13T14:40:46.166Z,95203.56
2023-03-13T14:43:21.603Z,95207.06
2023-03-13T14:45:49.631Z,95203.19
2023-03-13T14:48:23.773Z,95208.19
2023-03-13T14:50:59.627Z,95202.91
2023-03-13T14:53:35.945Z,95200.75
2023-03-13T14:56:16.153Z,95193.53
2023-03-13T14:58:42.890Z,95204.34
2023-03-13T15:01:30.999Z,95193.06
2023-03-13T15:03:57.767Z,95195.97
2023-03-13T15:06:25.250Z,95192.91
2023-03-13T15:09:10.115Z,95194.50
2023-03-13T15:11:41.279Z,95194.03
2023-03-13T15:14:37.597Z,95205.19
2023-03-13T15:17:11.506Z,95200.59
2023-03-13T15:19:38.151Z,95205.69
2023-03-13T15:22:04.811Z,95201.94
2023-03-13T15:24:31.763Z,95197.69
2023-03-13T15:26:58.416Z,95186.47
2023-03-13T15:29:25.213Z,95210.97
2023-03-13T15:31:52.137Z,95206.00
2023-03-13T15:34:21.021Z,95218.00
2023-03-13T15:36:47.709Z,95210.84
2023-03-13T15:39:21.178Z,95207.53
2023-03-13T15:41:47.945Z,95215.97
2023-03-13T15:44:14.843Z,95222.75
2023-03-13T15:46:41.530Z,95213.88
2023-03-13T15:49:13.043Z,95215.38
2023-03-13T15:51:39.811Z,95209.91
2023-03-13T15:54:06.461Z,95205.88
2023-03-13T15:56:36.436Z,95209.00
2023-03-13T15:59:10.530Z,95177.25
2023-03-13T16:01:37.580Z,95195.56
2023-03-13T16:04:04.740Z,95201.84
2023-03-13T16:06:32.372Z,95187.53
2023-03-13T16:09:01.052Z,95188.00
2023-03-13T16:11:29.080Z,95187.13
2023-03-13T16:13:57.457Z,95183.72
2023-03-13T16:16:36.575Z,95182.59
2023-03-13T16:19:04.368Z,95175.72
2023-03-13T16:21:34.643Z,95178.31
2023-03-13T16:24:01.501Z,95173.66
2023-03-13T16:26:31.016Z,95185.69
2023-03-13T16:28:58.475Z,95186.91
2023-03-13T16:31:31.247Z,95186.25
2023-03-13T16:33:58.930Z,95200.19
2023-03-13T16:36:29.639Z,95195.91
2023-03-13T16:38:56.364Z,95200.25
2023-03-13T16:41:25.013Z,95202.97
2023-03-13T16:43:51.678Z,95200.50
2023-03-13T16:46:23.520Z,95212.88
2023-03-13T16:48:51.264Z,95203.13
2023-03-13T16:51:23.729Z,95218.81
2023-03-13T16:53:53.520Z,95210.94
2023-03-13T16:56:27.095Z,95220.22
2023-03-13T16:58:54.683Z,95218.50
2023-03-13T17:01:24.919Z,95219.81
2023-03-13T17:03:52.079Z,95222.03
2023-03-13T17:06:24.275Z,95225.63
2023-03-13T17:08:51.064Z,95228.28
2023-03-13T17:11:20.976Z,95224.44
2023-03-13T17:13:49.450Z,95230.41
2023-03-13T17:16:16.033Z,95237.19
2023-03-13T17:18:44.259Z,95232.84
2023-03-13T17:21:13.288Z,95235.78
2023-03-13T17:23:40.092Z,95225.28
2023-03-13T17:26:23.111Z,95230.72
2023-03-13T17:28:52.441Z,95229.66
2023-03-13T17:31:20.383Z,95239.00
2023-03-13T17:33:47.543Z,95239.00
2023-03-13T17:36:20.086Z,95239.34
2023-03-13T17:38:48.852Z,95230.78
2023-03-13T17:41:18.381Z,95235.44
2023-03-13T17:43:45.364Z,95250.66
2023-03-13T17:46:19.523Z,95227.34
2023-03-13T17:48:48.269Z,95241.34
2023-03-13T17:51:21.443Z,95252.94
2023-03-13T17:53:48.966Z,95227.19
2023-03-13T17:56:20.228Z,95257.28
2023-03-13T17:58:50.155Z,95252.28
2023-03-13T18:01:19.873Z,95213.13
2023-03-13T18:03:47.646Z,95229.22
2023-03-13T18:06:26.315Z,95245.72
2023-03-13T18:08:56.068Z,95190.84
2023-03-13T18:11:24.609Z,95243.34
2023-03-13T18:13:51.939Z,95252.28
2023-03-13T18:16:30.421Z,95245.94
2023-03-13T18:18:57.541Z,95226.63
2023-03-13T18:21:24.761Z,95250.44
2023-03-13T18:23:53.620Z,95246.97
2023-03-13T18:26:23.247Z,95255.25
2023-03-13T18:28:50.618Z,95236.50
2023-03-13T18:31:20.453Z,95239.09
2023-03-13T18:33:48.024Z,95270.75
2023-03-13T18:36:20.055Z,95273.13
2023-03-13T18:38:48.158Z,95254.00
2023-03-13T18:41:15.589Z,95275.66
2023-03-13T18:43:43.487Z,95263.22
2023-03-13T18:46:27.825Z,95236.84
2023-03-13T18:48:55.132Z,95265.22
2023-03-13T18:51:26.772Z,95257.03
2023-03-13T18:53:54.904Z,95285.03
2023-03-13T18:56:23.017Z,95289.41
2023-03-13T18:58:51.446Z,95292.63
2023-03-13T19:01:21.385Z,95269.97
2023-03-13T19:03:49.159Z,95272.81
2023-03-13T19:06:26.076Z,95280.75
2023-03-13T19:09:01.796Z,95281.31
2023-03-13T19:11:31.102Z,95284.00
2023-03-13T19:13:58.330Z,95262.06
2023-03-13T19:16:37.851Z,95271.09
2023-03-13T19:19:11.221Z,95275.84
2023-03-13T19:21:37.819Z,95280.41
2023-03-13T19:24:04.746Z,95285.41
2023-03-13T19:26:33.184Z,95278.56
2023-03-13T19:28:59.999Z,95276.31
2023-03-13T19:31:27.193Z,95289.38
2023-03-13T19:33:54.640Z,95276.44
2023-03-13T19:36:23.572Z,95292.09
2023-03-13T19:38:51.107Z,95279.31
2023-03-13T19:41:17.949Z,95305.88
2023-03-13T19:43:45.583Z,95289.75
2023-03-13T19:46:27.785Z,95301.31
2023-03-13T19:48:56.806Z,95298.25
2023-03-13T19:51:24.772Z,95286.75
2023-03-13T19:53:51.658Z,95291.75
2023-03-13T19:56:32.380Z,95302.88
2023-03-13T19:59:04.203Z,95299.56
2023-03-13T20:01:31.938Z,95304.25
2023-03-13T20:03:58.862Z,95301.63
2023-03-13T20:06:28.126Z,95302.72
2023-03-13T20:08:59.077Z,95289.34
2023-03-13T20:11:27.133Z,95304.50
2023-03-13T20:13:54.026Z,95303.00
2023-03-13T20:16:21.065Z,95301.91
2023-03-13T20:18:51.535Z,95289.81
2023-03-13T20:21:19.234Z,95291.09
2023-03-13T20:23:48.631Z,95294.63
2023-03-13T20:26:17.575Z,95295.34
2023-03-13T20:28:47.181Z,95299.34
2023-03-13T20:31:14.866Z,95283.53
2023-03-13T20:33:41.617Z,95294.97
2023-03-13T20:36:14.016Z,95297.63
2023-03-13T20:38:41.878Z,95302.63
2023-03-13T20:41:09.222Z,95278.09
2023-03-13T20:43:36.957Z,95286.13
2023-03-13T20:46:07.182Z,95279.28
2023-03-13T20:48:42.462Z,95272.00
2023-03-13T20:51:09.674Z,95262.97
2023-03-13T20:53:38.270Z,95270.94
2023-03-13T20:56:07.193Z,95272.47
2023-03-13T20:58:37.798Z,95264.97
2023-03-13T21:01:06.973Z,95226.81
2023-03-13T21:03:35.717Z,95266.56
2023-03-13T21:06:15.910Z,95271.09
2023-03-13T21:08:43.331Z,95266.94
2023-03-13T21:11:14.586Z,95260.06
2023-03-13T21:13:41.513Z,95253.53
2023-03-13T21:18:53.734Z,95237.44
2023-03-13T21:21:22.365Z,95243.59
2023-03-13T21:23:52.114Z,95261.38
2023-03-13T21:26:19.119Z,95253.69
2023-03-13T21:28:45.791Z,95258.81
2023-03-13T21:31:14.890Z,95262.31
2023-03-13T21:33:42.889Z,95258.59
2023-03-13T21:36:10.525Z,95258.38
2023-03-13T21:38:37.722Z,95259.28
2023-03-13T21:41:09.084Z,95268.47
2023-03-13T21:43:35.722Z,95258.19
2023-03-13T21:46:04.035Z,95264.03
2023-03-13T21:48:30.672Z,95256.44
2023-03-13T21:50:57.352Z,95261.72
2023-03-13T21:53:24.055Z,95249.06
2023-03-13T21:55:51.637Z,95256.03
2023-03-13T21:58:18.705Z,95259.84
2023-03-13T22:00:45.552Z,95254.50
2023-03-13T22:03:12.437Z,95259.25
2023-03-13T22:05:43.588Z,95243.63
2023-03-13T22:08:11.742Z,95247.09
2023-03-13T22:10:38.770Z,95265.44
2023-03-13T22:13:06.637Z,95258.53
2023-03-13T22:15:33.426Z,95259.22
2023-03-13T22:18:00.177Z,95253.19
2023-03-13T22:20:27.242Z,95252.03
2023-03-13T22:22:53.941Z,95250.88
2023-03-13T22:25:20.659Z,95252.38
2023-03-13T22:27:47.254Z,95246.31
2023-03-13T22:30:14.160Z,95240.25
2023-03-13T22:32:40.730Z,95247.63
2023-03-13T22:35:08.429Z,95247.97
2023-03-13T22:37:35.088Z,95240.25
2023-03-13T22:40:01.947Z,95236.47
2023-03-13T22:42:28.597Z,95234.97
2023-03-13T22:44:55.850Z,95231.13
2023-03-13T22:47:23.560Z,95230.72
2023-03-13T22:49:50.580Z,95230.75
2023-03-13T22:52:17.397Z,95224.31
2023-03-13T22:54:46.522Z,95229.59
2023-03-13T22:57:13.700Z,95230.75
2023-03-13T22:59:40.330Z,95216.59
2023-03-13T23:02:06.914Z,95208.22
2023-03-13T23:04:33.556Z,95213.16
2023-03-13T23:07:00.146Z,95239.50
2023-03-13T23:09:26.769Z,95236.84
2023-03-13T23:11:53.377Z,95235.72
2023-03-13T23:14:19.979Z,95250.69
2023-03-13T23:16:46.881Z,95242.63
2023-03-13T23:19:13.679Z,95247.66
2023-03-13T23:21:40.402Z,95244.69
2023-03-13T23:24:07.423Z,95251.63
2023-03-13T23:26:34.117Z,95253.50
2023-03-13T23:29:00.794Z,95253.16
2023-03-13T23:31:27.435Z,95247.81
2023-03-13T23:33:54.087Z,95245.09
2023-03-13T23:36:20.774Z,95245.09
2023-03-13T23:38:52.370Z,95244.69
2023-03-13T23:41:20.374Z,95242.06
2023-03-13T23:43:47.124Z,95230.94
2023-03-13T23:46:23.275Z,95242.06
2023-03-13T23:48:53.726Z,95235.19
2023-03-13T23:51:20.366Z,95230.56
2023-03-13T23:53:47.116Z,95230.88
2023-03-13T23:56:14.189Z,95224.75
2023-03-13T23:58:41.072Z,95212.84
